sensor_id;sensor_type;location;lat;lon;timestamp;P1;durP1;ratioP1;P2;durP2;ratioP2
75935;SDS011;64614;32.062;34.834;2023-01-01T00:00:57;11.10;;;5.35;;
75935;SDS011;64614;32.062;34.834;2023-01-01T00:03:23;10.82;;;5.68;;
75935;SDS011;64614;32.062;34.834;2023-01-01T00:05:48;10.05;;;5.40;;
75935;SDS011;64614;32.062;34.834;2023-01-01T00:08:14;11.43;;;5.80;;
75935;SDS011;64614;32.062;34.834;2023-01-01T00:10:40;9.60;;;5.25;;
75935;SDS011;64614;32.062;34.834;2023-01-01T00:13:05;10.95;;;5.82;;
75935;SDS011;64614;32.062;34.834;2023-01-01T00:15:31;9.75;;;5.22;;
75935;SDS011;64614;32.062;34.834;2023-01-01T00:17:57;10.65;;;5.60;;
75935;SDS011;64614;32.062;34.834;2023-01-01T00:20:23;9.40;;;5.28;;
75935;SDS011;64614;32.062;34.834;2023-01-01T00:22:49;10.38;;;5.45;;
75935;SDS011;64614;32.062;34.834;2023-01-01T00:25:15;10.57;;;5.85;;
75935;SDS011;64614;32.062;34.834;2023-01-01T00:27:42;10.93;;;5.70;;
75935;SDS011;64614;32.062;34.834;2023-01-01T00:30:09;11.90;;;5.88;;
75935;SDS011;64614;32.062;34.834;2023-01-01T00:32:35;13.07;;;5.78;;
75935;SDS011;64614;32.062;34.834;2023-01-01T00:35:01;10.70;;;5.88;;
75935;SDS011;64614;32.062;34.834;2023-01-01T00:37:27;9.38;;;5.60;;
75935;SDS011;64614;32.062;34.834;2023-01-01T00:39:53;10.13;;;5.60;;
75935;SDS011;64614;32.062;34.834;2023-01-01T00:42:19;11.15;;;5.90;;
75935;SDS011;64614;32.062;34.834;2023-01-01T00:44:44;10.20;;;5.00;;
75935;SDS011;64614;32.062;34.834;2023-01-01T00:47:10;10.48;;;5.78;;
75935;SDS011;64614;32.062;34.834;2023-01-01T00:49:36;11.02;;;5.53;;
75935;SDS011;64614;32.062;34.834;2023-01-01T00:52:02;10.73;;;5.32;;
75935;SDS011;64614;32.062;34.834;2023-01-01T00:54:28;10.48;;;5.40;;
75935;SDS011;64614;32.062;34.834;2023-01-01T00:56:54;10.93;;;5.25;;
75935;SDS011;64614;32.062;34.834;2023-01-01T00:59:21;10.85;;;5.47;;
75935;SDS011;64614;32.062;34.834;2023-01-01T01:01:47;9.55;;;5.18;;
75935;SDS011;64614;32.062;34.834;2023-01-01T01:04:13;10.85;;;5.30;;
75935;SDS011;64614;32.062;34.834;2023-01-01T01:06:38;11.25;;;5.32;;
75935;SDS011;64614;32.062;34.834;2023-01-01T01:09:07;12.00;;;5.80;;
75935;SDS011;64614;32.062;34.834;2023-01-01T01:11:32;9.77;;;5.28;;
75935;SDS011;64614;32.062;34.834;2023-01-01T01:13:58;10.68;;;5.40;;
75935;SDS011;64614;32.062;34.834;2023-01-01T01:16:25;10.82;;;5.63;;
75935;SDS011;64614;32.062;34.834;2023-01-01T01:18:53;10.32;;;5.43;;
75935;SDS011;64614;32.062;34.834;2023-01-01T01:21:20;12.07;;;5.85;;
75935;SDS011;64614;32.062;34.834;2023-01-01T01:23:47;10.57;;;5.07;;
75935;SDS011;64614;32.062;34.834;2023-01-01T01:26:18;11.52;;;5.45;;
75935;SDS011;64614;32.062;34.834;2023-01-01T01:28:46;10.82;;;5.25;;
75935;SDS011;64614;32.062;34.834;2023-01-01T01:31:12;10.52;;;5.05;;
75935;SDS011;64614;32.062;34.834;2023-01-01T01:33:38;10.13;;;5.65;;
75935;SDS011;64614;32.062;34.834;2023-01-01T01:36:08;11.45;;;5.82;;
75935;SDS011;64614;32.062;34.834;2023-01-01T01:38:34;11.35;;;5.20;;
75935;SDS011;64614;32.062;34.834;2023-01-01T01:41:00;10.20;;;4.88;;
75935;SDS011;64614;32.062;34.834;2023-01-01T01:45:59;10.50;;;5.30;;
75935;SDS011;64614;32.062;34.834;2023-01-01T01:48:36;11.70;;;5.63;;
75935;SDS011;64614;32.062;34.834;2023-01-01T01:51:06;10.50;;;5.57;;
75935;SDS011;64614;32.062;34.834;2023-01-01T01:53:33;11.60;;;5.38;;
75935;SDS011;64614;32.062;34.834;2023-01-01T01:56:03;11.20;;;5.35;;
75935;SDS011;64614;32.062;34.834;2023-01-01T01:58:33;10.85;;;5.40;;
75935;SDS011;64614;32.062;34.834;2023-01-01T02:00:59;10.82;;;5.60;;
75935;SDS011;64614;32.062;34.834;2023-01-01T02:03:39;10.18;;;5.07;;
75935;SDS011;64614;32.062;34.834;2023-01-01T02:06:10;10.98;;;5.43;;
75935;SDS011;64614;32.062;34.834;2023-01-01T02:08:36;9.73;;;4.90;;
75935;SDS011;64614;32.062;34.834;2023-01-01T02:11:02;9.63;;;5.00;;
75935;SDS011;64614;32.062;34.834;2023-01-01T02:13:28;10.80;;;5.03;;
75935;SDS011;64614;32.062;34.834;2023-01-01T02:16:09;11.80;;;5.57;;
75935;SDS011;64614;32.062;34.834;2023-01-01T02:18:58;10.80;;;5.35;;
75935;SDS011;64614;32.062;34.834;2023-01-01T02:27:10;9.40;;;5.22;;
75935;SDS011;64614;32.062;34.834;2023-01-01T02:29:47;8.88;;;4.97;;
75935;SDS011;64614;32.062;34.834;2023-01-01T02:32:44;10.20;;;4.93;;
75935;SDS011;64614;32.062;34.834;2023-01-01T02:35:16;10.73;;;5.25;;
75935;SDS011;64614;32.062;34.834;2023-01-01T02:40:36;9.27;;;5.30;;
75935;SDS011;64614;32.062;34.834;2023-01-01T02:43:05;9.27;;;4.82;;
75935;SDS011;64614;32.062;34.834;2023-01-01T02:45:31;10.57;;;5.38;;
75935;SDS011;64614;32.062;34.834;2023-01-01T02:48:02;11.02;;;5.30;;
75935;SDS011;64614;32.062;34.834;2023-01-01T02:50:51;9.68;;;5.13;;
75935;SDS011;64614;32.062;34.834;2023-01-01T02:53:19;10.30;;;5.15;;
75935;SDS011;64614;32.062;34.834;2023-01-01T03:04:53;10.55;;;5.47;;
75935;SDS011;64614;32.062;34.834;2023-01-01T03:12:46;9.98;;;5.38;;
75935;SDS011;64614;32.062;34.834;2023-01-01T03:20:40;10.25;;;5.05;;
75935;SDS011;64614;32.062;34.834;2023-01-01T03:23:11;10.63;;;5.00;;
75935;SDS011;64614;32.062;34.834;2023-01-01T03:25:44;9.77;;;5.10;;
75935;SDS011;64614;32.062;34.834;2023-01-01T03:28:19;9.38;;;5.00;;
75935;SDS011;64614;32.062;34.834;2023-01-01T03:30:50;9.60;;;5.57;;
75935;SDS011;64614;32.062;34.834;2023-01-01T03:33:20;11.38;;;5.53;;
75935;SDS011;64614;32.062;34.834;2023-01-01T03:35:54;8.07;;;4.60;;
75935;SDS011;64614;32.062;34.834;2023-01-01T03:41:31;10.88;;;5.18;;
75935;SDS011;64614;32.062;34.834;2023-01-01T03:46:38;10.70;;;5.25;;
75935;SDS011;64614;32.062;34.834;2023-01-01T03:49:06;10.40;;;5.35;;
75935;SDS011;64614;32.062;34.834;2023-01-01T03:56:58;9.88;;;5.28;;
75935;SDS011;64614;32.062;34.834;2023-01-01T03:59:41;9.73;;;5.28;;
75935;SDS011;64614;32.062;34.834;2023-01-01T04:02:49;9.07;;;4.75;;
75935;SDS011;64614;32.062;34.834;2023-01-01T04:05:21;9.95;;;4.78;;
75935;SDS011;64614;32.062;34.834;2023-01-01T04:07:49;9.82;;;5.00;;
75935;SDS011;64614;32.062;34.834;2023-01-01T04:10:16;11.68;;;4.80;;
75935;SDS011;64614;32.062;34.834;2023-01-01T04:12:45;10.13;;;4.85;;
75935;SDS011;64614;32.062;34.834;2023-01-01T04:15:22;10.13;;;4.75;;
75935;SDS011;64614;32.062;34.834;2023-01-01T04:17:51;10.05;;;5.38;;
75935;SDS011;64614;32.062;34.834;2023-01-01T04:20:18;9.88;;;4.60;;
75935;SDS011;64614;32.062;34.834;2023-01-01T04:22:44;9.60;;;4.88;;
75935;SDS011;64614;32.062;34.834;2023-01-01T04:25:11;10.73;;;4.90;;
75935;SDS011;64614;32.062;34.834;2023-01-01T04:27:37;9.52;;;5.03;;
75935;SDS011;64614;32.062;34.834;2023-01-01T04:30:05;10.35;;;4.93;;
75935;SDS011;64614;32.062;34.834;2023-01-01T04:32:32;15.55;;;4.68;;
75935;SDS011;64614;32.062;34.834;2023-01-01T04:34:58;9.80;;;4.82;;
75935;SDS011;64614;32.062;34.834;2023-01-01T04:37:24;9.75;;;4.70;;
75935;SDS011;64614;32.062;34.834;2023-01-01T04:39:50;11.18;;;5.13;;
75935;SDS011;64614;32.062;34.834;2023-01-01T04:42:16;11.15;;;5.22;;
75935;SDS011;64614;32.062;34.834;2023-01-01T04:44:42;15.38;;;4.97;;
75935;SDS011;64614;32.062;34.834;2023-01-01T04:47:08;10.32;;;4.53;;
75935;SDS011;64614;32.062;34.834;2023-01-01T04:49:34;11.23;;;5.10;;
75935;SDS011;64614;32.062;34.834;2023-01-01T04:51:59;10.07;;;4.40;;
75935;SDS011;64614;32.062;34.834;2023-01-01T04:54:25;12.48;;;4.35;;
75935;SDS011;64614;32.062;34.834;2023-01-01T04:56:51;10.95;;;4.85;;
75935;SDS011;64614;32.062;34.834;2023-01-01T04:59:16;12.88;;;4.80;;
75935;SDS011;64614;32.062;34.834;2023-01-01T05:01:42;12.77;;;5.07;;
75935;SDS011;64614;32.062;34.834;2023-01-01T05:04:08;11.55;;;4.72;;
75935;SDS011;64614;32.062;34.834;2023-01-01T05:06:37;10.43;;;4.50;;
75935;SDS011;64614;32.062;34.834;2023-01-01T05:09:03;14.40;;;5.47;;
75935;SDS011;64614;32.062;34.834;2023-01-01T05:11:31;11.60;;;4.78;;
75935;SDS011;64614;32.062;34.834;2023-01-01T05:13:57;16.73;;;4.40;;
75935;SDS011;64614;32.062;34.834;2023-01-01T05:16:25;13.32;;;4.78;;
75935;SDS011;64614;32.062;34.834;2023-01-01T05:18:52;14.52;;;4.68;;
75935;SDS011;64614;32.062;34.834;2023-01-01T05:21:19;12.02;;;5.28;;
75935;SDS011;64614;32.062;34.834;2023-01-01T05:23:47;16.20;;;5.70;;
75935;SDS011;64614;32.062;34.834;2023-01-01T05:26:15;12.30;;;5.30;;
75935;SDS011;64614;32.062;34.834;2023-01-01T05:28:42;12.00;;;5.82;;
75935;SDS011;64614;32.062;34.834;2023-01-01T05:31:28;12.70;;;5.15;;
75935;SDS011;64614;32.062;34.834;2023-01-01T05:33:55;14.15;;;5.40;;
75935;SDS011;64614;32.062;34.834;2023-01-01T05:36:26;11.75;;;5.22;;
75935;SDS011;64614;32.062;34.834;2023-01-01T05:38:53;15.13;;;5.28;;
75935;SDS011;64614;32.062;34.834;2023-01-01T05:41:19;12.68;;;5.03;;
75935;SDS011;64614;32.062;34.834;2023-01-01T05:43:46;12.95;;;5.75;;
75935;SDS011;64614;32.062;34.834;2023-01-01T05:46:16;13.25;;;5.47;;
75935;SDS011;64614;32.062;34.834;2023-01-01T05:48:43;15.38;;;5.72;;
75935;SDS011;64614;32.062;34.834;2023-01-01T05:51:17;13.40;;;5.78;;
75935;SDS011;64614;32.062;34.834;2023-01-01T05:53:45;11.48;;;5.45;;
75935;SDS011;64614;32.062;34.834;2023-01-01T05:56:11;12.18;;;5.65;;
75935;SDS011;64614;32.062;34.834;2023-01-01T05:58:38;15.00;;;5.93;;
75935;SDS011;64614;32.062;34.834;2023-01-01T06:01:11;15.40;;;6.35;;
75935;SDS011;64614;32.062;34.834;2023-01-01T06:03:42;14.88;;;5.80;;
75935;SDS011;64614;32.062;34.834;2023-01-01T06:06:11;14.82;;;5.78;;
75935;SDS011;64614;32.062;34.834;2023-01-01T06:08:39;16.10;;;5.88;;
75935;SDS011;64614;32.062;34.834;2023-01-01T06:11:06;12.98;;;5.57;;
75935;SDS011;64614;32.062;34.834;2023-01-01T06:13:33;16.08;;;5.70;;
75935;SDS011;64614;32.062;34.834;2023-01-01T06:16:00;13.55;;;5.97;;
75935;SDS011;64614;32.062;34.834;2023-01-01T06:18:31;13.10;;;5.78;;
75935;SDS011;64614;32.062;34.834;2023-01-01T06:21:11;17.30;;;5.80;;
75935;SDS011;64614;32.062;34.834;2023-01-01T06:23:37;13.55;;;6.05;;
75935;SDS011;64614;32.062;34.834;2023-01-01T06:26:05;16.92;;;6.07;;
75935;SDS011;64614;32.062;34.834;2023-01-01T06:28:42;14.95;;;6.53;;
75935;SDS011;64614;32.062;34.834;2023-01-01T06:31:11;16.08;;;5.45;;
75935;SDS011;64614;32.062;34.834;2023-01-01T06:33:39;14.40;;;6.22;;
75935;SDS011;64614;32.062;34.834;2023-01-01T06:36:06;13.27;;;5.97;;
75935;SDS011;64614;32.062;34.834;2023-01-01T06:38:34;15.05;;;6.30;;
75935;SDS011;64614;32.062;34.834;2023-01-01T06:41:02;15.35;;;5.93;;
75935;SDS011;64614;32.062;34.834;2023-01-01T06:43:30;14.57;;;5.85;;
75935;SDS011;64614;32.062;34.834;2023-01-01T06:48:32;17.10;;;6.20;;
75935;SDS011;64614;32.062;34.834;2023-01-01T06:51:09;22.17;;;6.47;;
75935;SDS011;64614;32.062;34.834;2023-01-01T06:53:36;15.10;;;6.15;;
75935;SDS011;64614;32.062;34.834;2023-01-01T06:56:02;20.08;;;7.05;;
75935;SDS011;64614;32.062;34.834;2023-01-01T06:58:28;14.32;;;6.00;;
75935;SDS011;64614;32.062;34.834;2023-01-01T07:01:02;14.30;;;5.82;;
75935;SDS011;64614;32.062;34.834;2023-01-01T07:03:29;13.27;;;5.75;;
75935;SDS011;64614;32.062;34.834;2023-01-01T07:05:54;15.07;;;5.43;;
75935;SDS011;64614;32.062;34.834;2023-01-01T07:08:20;14.43;;;5.65;;
75935;SDS011;64614;32.062;34.834;2023-01-01T07:10:46;13.93;;;6.07;;
75935;SDS011;64614;32.062;34.834;2023-01-01T07:13:11;12.57;;;5.47;;
75935;SDS011;64614;32.062;34.834;2023-01-01T07:15:37;16.25;;;6.22;;
75935;SDS011;64614;32.062;34.834;2023-01-01T07:18:03;14.45;;;5.68;;
75935;SDS011;64614;32.062;34.834;2023-01-01T07:20:28;15.05;;;5.88;;
75935;SDS011;64614;32.062;34.834;2023-01-01T07:22:54;13.82;;;5.93;;
75935;SDS011;64614;32.062;34.834;2023-01-01T07:25:19;15.65;;;5.72;;
75935;SDS011;64614;32.062;34.834;2023-01-01T07:27:45;13.15;;;5.68;;
75935;SDS011;64614;32.062;34.834;2023-01-01T07:30:11;17.23;;;6.78;;
75935;SDS011;64614;32.062;34.834;2023-01-01T07:32:36;15.18;;;5.82;;
75935;SDS011;64614;32.062;34.834;2023-01-01T07:35:02;14.52;;;5.90;;
75935;SDS011;64614;32.062;34.834;2023-01-01T07:37:28;12.93;;;5.50;;
75935;SDS011;64614;32.062;34.834;2023-01-01T07:39:54;13.32;;;5.50;;
75935;SDS011;64614;32.062;34.834;2023-01-01T07:42:19;13.35;;;5.55;;
75935;SDS011;64614;32.062;34.834;2023-01-01T07:44:45;11.35;;;5.90;;
75935;SDS011;64614;32.062;34.834;2023-01-01T07:47:21;12.75;;;5.80;;
75935;SDS011;64614;32.062;34.834;2023-01-01T07:49:49;16.20;;;6.07;;
75935;SDS011;64614;32.062;34.834;2023-01-01T07:52:15;14.18;;;5.55;;
75935;SDS011;64614;32.062;34.834;2023-01-01T07:54:40;16.60;;;5.55;;
75935;SDS011;64614;32.062;34.834;2023-01-01T07:57:06;14.45;;;5.38;;
75935;SDS011;64614;32.062;34.834;2023-01-01T07:59:32;16.50;;;6.43;;
75935;SDS011;64614;32.062;34.834;2023-01-01T08:01:57;15.43;;;5.90;;
75935;SDS011;64614;32.062;34.834;2023-01-01T08:04:23;16.60;;;5.82;;
75935;SDS011;64614;32.062;34.834;2023-01-01T08:06:51;15.80;;;6.30;;
75935;SDS011;64614;32.062;34.834;2023-01-01T08:09:17;15.10;;;6.47;;
75935;SDS011;64614;32.062;34.834;2023-01-01T08:11:43;13.95;;;5.78;;
75935;SDS011;64614;32.062;34.834;2023-01-01T08:14:10;14.00;;;5.72;;
75935;SDS011;64614;32.062;34.834;2023-01-01T08:16:36;13.57;;;6.03;;
75935;SDS011;64614;32.062;34.834;2023-01-01T08:19:03;14.77;;;5.88;;
75935;SDS011;64614;32.062;34.834;2023-01-01T08:21:29;13.57;;;5.57;;
75935;SDS011;64614;32.062;34.834;2023-01-01T08:23:55;12.23;;;5.53;;
75935;SDS011;64614;32.062;34.834;2023-01-01T08:26:28;16.00;;;5.68;;
75935;SDS011;64614;32.062;34.834;2023-01-01T08:28:56;12.90;;;5.35;;
75935;SDS011;64614;32.062;34.834;2023-01-01T08:31:23;14.13;;;5.53;;
75935;SDS011;64614;32.062;34.834;2023-01-01T08:33:50;13.75;;;6.15;;
75935;SDS011;64614;32.062;34.834;2023-01-01T08:36:16;15.88;;;5.70;;
75935;SDS011;64614;32.062;34.834;2023-01-01T08:38:42;16.30;;;6.05;;
75935;SDS011;64614;32.062;34.834;2023-01-01T08:41:08;15.18;;;6.20;;
75935;SDS011;64614;32.062;34.834;2023-01-01T08:43:34;11.77;;;6.00;;
75935;SDS011;64614;32.062;34.834;2023-01-01T08:46:00;12.43;;;5.40;;
75935;SDS011;64614;32.062;34.834;2023-01-01T08:48:25;14.88;;;5.93;;
75935;SDS011;64614;32.062;34.834;2023-01-01T08:50:54;15.70;;;6.13;;
75935;SDS011;64614;32.062;34.834;2023-01-01T08:53:24;16.95;;;5.95;;
75935;SDS011;64614;32.062;34.834;2023-01-01T08:56:09;15.05;;;5.00;;
75935;SDS011;64614;32.062;34.834;2023-01-01T08:58:36;15.35;;;5.75;;
75935;SDS011;64614;32.062;34.834;2023-01-01T09:01:04;16.25;;;5.45;;
75935;SDS011;64614;32.062;34.834;2023-01-01T09:03:31;16.40;;;5.35;;
75935;SDS011;64614;32.062;34.834;2023-01-01T09:05:57;15.32;;;5.00;;
75935;SDS011;64614;32.062;34.834;2023-01-01T09:08:23;10.40;;;5.13;;
75935;SDS011;64614;32.062;34.834;2023-01-01T09:10:49;12.85;;;5.30;;
75935;SDS011;64614;32.062;34.834;2023-01-01T09:13:16;13.57;;;5.85;;
75935;SDS011;64614;32.062;34.834;2023-01-01T09:15:43;14.63;;;5.35;;
75935;SDS011;64614;32.062;34.834;2023-01-01T09:18:09;13.25;;;5.20;;
75935;SDS011;64614;32.062;34.834;2023-01-01T09:20:35;13.35;;;5.38;;
75935;SDS011;64614;32.062;34.834;2023-01-01T09:23:03;15.90;;;5.38;;
75935;SDS011;64614;32.062;34.834;2023-01-01T09:25:29;14.43;;;5.20;;
75935;SDS011;64614;32.062;34.834;2023-01-01T09:27:55;13.48;;;5.43;;
75935;SDS011;64614;32.062;34.834;2023-01-01T09:30:24;14.30;;;5.47;;
75935;SDS011;64614;32.062;34.834;2023-01-01T09:32:50;15.73;;;5.10;;
75935;SDS011;64614;32.062;34.834;2023-01-01T09:35:16;14.82;;;5.30;;
75935;SDS011;64614;32.062;34.834;2023-01-01T09:37:42;13.60;;;5.43;;
75935;SDS011;64614;32.062;34.834;2023-01-01T09:40:10;15.55;;;5.45;;
75935;SDS011;64614;32.062;34.834;2023-01-01T09:43:13;15.50;;;5.50;;
75935;SDS011;64614;32.062;34.834;2023-01-01T09:45:58;15.23;;;5.63;;
75935;SDS011;64614;32.062;34.834;2023-01-01T09:48:26;18.08;;;5.90;;
75935;SDS011;64614;32.062;34.834;2023-01-01T09:50:54;12.18;;;5.40;;
75935;SDS011;64614;32.062;34.834;2023-01-01T09:55:52;13.93;;;5.47;;
75935;SDS011;64614;32.062;34.834;2023-01-01T09:58:27;12.13;;;5.05;;
75935;SDS011;64614;32.062;34.834;2023-01-01T10:03:44;13.13;;;5.32;;
75935;SDS011;64614;32.062;34.834;2023-01-01T10:06:29;16.55;;;5.68;;
75935;SDS011;64614;32.062;34.834;2023-01-01T10:14:36;15.18;;;5.70;;
75935;SDS011;64614;32.062;34.834;2023-01-01T10:17:29;13.32;;;5.68;;
75935;SDS011;64614;32.062;34.834;2023-01-01T10:20:00;13.60;;;5.47;;
75935;SDS011;64614;32.062;34.834;2023-01-01T10:22:37;13.32;;;5.30;;
75935;SDS011;64614;32.062;34.834;2023-01-01T10:25:21;11.75;;;4.95;;
75935;SDS011;64614;32.062;34.834;2023-01-01T10:28:01;12.32;;;5.55;;
75935;SDS011;64614;32.062;34.834;2023-01-01T10:30:56;15.85;;;5.75;;
75935;SDS011;64614;32.062;34.834;2023-01-01T10:33:35;17.85;;;6.35;;
75935;SDS011;64614;32.062;34.834;2023-01-01T10:36:00;16.00;;;6.20;;
75935;SDS011;64614;32.062;34.834;2023-01-01T10:38:27;15.75;;;5.70;;
75935;SDS011;64614;32.062;34.834;2023-01-01T10:40:59;13.20;;;6.40;;
75935;SDS011;64614;32.062;34.834;2023-01-01T10:43:31;16.73;;;6.40;;
75935;SDS011;64614;32.062;34.834;2023-01-01T10:45:56;17.42;;;7.00;;
75935;SDS011;64614;32.062;34.834;2023-01-01T10:48:26;16.40;;;6.40;;
75935;SDS011;64614;32.062;34.834;2023-01-01T10:50:57;15.75;;;6.57;;
75935;SDS011;64614;32.062;34.834;2023-01-01T10:56:16;14.98;;;5.93;;
75935;SDS011;64614;32.062;34.834;2023-01-01T10:58:49;15.35;;;6.00;;
75935;SDS011;64614;32.062;34.834;2023-01-01T11:01:23;14.43;;;6.18;;
75935;SDS011;64614;32.062;34.834;2023-01-01T11:04:01;17.98;;;6.40;;
75935;SDS011;64614;32.062;34.834;2023-01-01T11:06:42;19.92;;;7.05;;
75935;SDS011;64614;32.062;34.834;2023-01-01T11:09:18;18.63;;;6.75;;
75935;SDS011;64614;32.062;34.834;2023-01-01T11:12:02;15.05;;;6.30;;
75935;SDS011;64614;32.062;34.834;2023-01-01T11:14:41;16.17;;;6.50;;
75935;SDS011;64614;32.062;34.834;2023-01-01T11:17:07;15.27;;;6.55;;
75935;SDS011;64614;32.062;34.834;2023-01-01T11:19:38;14.15;;;6.40;;
75935;SDS011;64614;32.062;34.834;2023-01-01T11:22:09;18.52;;;6.45;;
75935;SDS011;64614;32.062;34.834;2023-01-01T11:25:15;15.05;;;6.88;;
75935;SDS011;64614;32.062;34.834;2023-01-01T11:27:42;17.50;;;6.63;;
75935;SDS011;64614;32.062;34.834;2023-01-01T11:32:48;14.60;;;6.10;;
75935;SDS011;64614;32.062;34.834;2023-01-01T11:35:19;15.10;;;6.82;;
75935;SDS011;64614;32.062;34.834;2023-01-01T11:37:47;13.93;;;6.28;;
75935;SDS011;64614;32.062;34.834;2023-01-01T11:40:16;13.18;;;5.93;;
75935;SDS011;64614;32.062;34.834;2023-01-01T11:42:51;17.58;;;6.30;;
75935;SDS011;64614;32.062;34.834;2023-01-01T11:45:22;13.35;;;6.22;;
75935;SDS011;64614;32.062;34.834;2023-01-01T11:47:51;12.70;;;5.43;;
75935;SDS011;64614;32.062;34.834;2023-01-01T11:50:27;16.95;;;5.95;;
75935;SDS011;64614;32.062;34.834;2023-01-01T11:52:58;16.70;;;6.50;;
75935;SDS011;64614;32.062;34.834;2023-01-01T11:56:02;15.88;;;6.07;;
75935;SDS011;64614;32.062;34.834;2023-01-01T12:04:17;11.77;;;5.32;;
75935;SDS011;64614;32.062;34.834;2023-01-01T12:09:29;14.07;;;5.75;;
75935;SDS011;64614;32.062;34.834;2023-01-01T12:12:14;12.10;;;5.03;;
75935;SDS011;64614;32.062;34.834;2023-01-01T12:15:14;13.65;;;5.53;;
75935;SDS011;64614;32.062;34.834;2023-01-01T12:17:43;13.57;;;5.55;;
75935;SDS011;64614;32.062;34.834;2023-01-01T12:20:18;11.55;;;5.30;;
75935;SDS011;64614;32.062;34.834;2023-01-01T12:22:50;13.82;;;5.18;;
75935;SDS011;64614;32.062;34.834;2023-01-01T12:25:19;14.45;;;5.15;;
75935;SDS011;64614;32.062;34.834;2023-01-01T12:30:51;11.73;;;5.00;;
75935;SDS011;64614;32.062;34.834;2023-01-01T12:42:07;12.50;;;5.18;;
75935;SDS011;64614;32.062;34.834;2023-01-01T12:49:52;13.25;;;5.22;;
75935;SDS011;64614;32.062;34.834;2023-01-01T12:52:30;12.90;;;5.53;;
75935;SDS011;64614;32.062;34.834;2023-01-01T12:57:34;12.77;;;5.18;;
75935;SDS011;64614;32.062;34.834;2023-01-01T13:00:03;13.43;;;5.20;;
75935;SDS011;64614;32.062;34.834;2023-01-01T13:02:37;13.90;;;5.22;;
75935;SDS011;64614;32.062;34.834;2023-01-01T13:08:09;11.63;;;4.82;;
75935;SDS011;64614;32.062;34.834;2023-01-01T13:10:39;11.00;;;5.20;;
75935;SDS011;64614;32.062;34.834;2023-01-01T13:13:07;13.82;;;4.82;;
75935;SDS011;64614;32.062;34.834;2023-01-01T13:18:05;10.18;;;4.65;;
75935;SDS011;64614;32.062;34.834;2023-01-01T13:20:35;15.20;;;5.55;;
75935;SDS011;64614;32.062;34.834;2023-01-01T13:23:04;10.82;;;4.65;;
75935;SDS011;64614;32.062;34.834;2023-01-01T13:25:30;12.45;;;5.10;;
75935;SDS011;64614;32.062;34.834;2023-01-01T13:44:36;14.43;;;5.22;;
75935;SDS011;64614;32.062;34.834;2023-01-01T13:55:07;15.88;;;5.47;;
75935;SDS011;64614;32.062;34.834;2023-01-01T14:00:31;13.48;;;4.82;;
75935;SDS011;64614;32.062;34.834;2023-01-01T14:03:15;13.85;;;5.28;;
75935;SDS011;64614;32.062;34.834;2023-01-01T14:08:26;13.98;;;5.18;;
75935;SDS011;64614;32.062;34.834;2023-01-01T14:10:55;13.93;;;5.60;;
75935;SDS011;64614;32.062;34.834;2023-01-01T14:13:21;13.50;;;5.22;;
75935;SDS011;64614;32.062;34.834;2023-01-01T14:15:59;13.68;;;5.40;;
75935;SDS011;64614;32.062;34.834;2023-01-01T14:21:02;16.65;;;5.85;;
75935;SDS011;64614;32.062;34.834;2023-01-01T14:23:38;13.63;;;5.55;;
75935;SDS011;64614;32.062;34.834;2023-01-01T14:26:11;12.82;;;5.25;;
75935;SDS011;64614;32.062;34.834;2023-01-01T14:28:39;13.57;;;5.43;;
75935;SDS011;64614;32.062;34.834;2023-01-01T14:31:15;13.93;;;5.03;;
75935;SDS011;64614;32.062;34.834;2023-01-01T14:33:44;13.15;;;5.07;;
75935;SDS011;64614;32.062;34.834;2023-01-01T14:38:49;11.55;;;5.05;;
75935;SDS011;64614;32.062;34.834;2023-01-01T14:43:55;12.68;;;4.55;;
75935;SDS011;64614;32.062;34.834;2023-01-01T14:46:26;17.52;;;5.32;;
75935;SDS011;64614;32.062;34.834;2023-01-01T14:48:56;12.00;;;4.90;;
75935;SDS011;64614;32.062;34.834;2023-01-01T14:51:28;11.48;;;4.88;;
75935;SDS011;64614;32.062;34.834;2023-01-01T14:53:59;13.40;;;4.70;;
75935;SDS011;64614;32.062;34.834;2023-01-01T14:56:28;11.77;;;4.47;;
75935;SDS011;64614;32.062;34.834;2023-01-01T15:04:28;11.25;;;4.75;;
75935;SDS011;64614;32.062;34.834;2023-01-01T15:06:55;14.35;;;4.95;;
75935;SDS011;64614;32.062;34.834;2023-01-01T15:09:22;12.48;;;5.22;;
75935;SDS011;64614;32.062;34.834;2023-01-01T15:11:51;13.13;;;4.85;;
75935;SDS011;64614;32.062;34.834;2023-01-01T15:14:32;12.15;;;4.50;;
75935;SDS011;64614;32.062;34.834;2023-01-01T15:17:06;12.70;;;4.93;;
75935;SDS011;64614;32.062;34.834;2023-01-01T15:19:34;11.27;;;4.80;;
75935;SDS011;64614;32.062;34.834;2023-01-01T15:24:36;11.40;;;5.22;;
75935;SDS011;64614;32.062;34.834;2023-01-01T15:27:03;11.27;;;4.85;;
75935;SDS011;64614;32.062;34.834;2023-01-01T15:29:32;13.55;;;5.18;;
75935;SDS011;64614;32.062;34.834;2023-01-01T15:32:09;11.73;;;4.97;;
75935;SDS011;64614;32.062;34.834;2023-01-01T15:37:21;14.35;;;5.10;;
75935;SDS011;64614;32.062;34.834;2023-01-01T15:39:58;15.77;;;4.68;;
75935;SDS011;64614;32.062;34.834;2023-01-01T15:42:38;10.25;;;4.45;;
75935;SDS011;64614;32.062;34.834;2023-01-01T15:47:50;12.20;;;4.55;;
75935;SDS011;64614;32.062;34.834;2023-01-01T15:50:24;13.13;;;4.65;;
75935;SDS011;64614;32.062;34.834;2023-01-01T15:53:10;19.92;;;4.80;;
75935;SDS011;64614;32.062;34.834;2023-01-01T15:58:36;14.55;;;4.05;;
75935;SDS011;64614;32.062;34.834;2023-01-01T16:01:09;11.05;;;4.60;;
75935;SDS011;64614;32.062;34.834;2023-01-01T16:03:38;11.88;;;4.70;;
75935;SDS011;64614;32.062;34.834;2023-01-01T16:06:05;13.77;;;4.60;;
75935;SDS011;64614;32.062;34.834;2023-01-01T16:08:31;10.07;;;4.47;;
75935;SDS011;64614;32.062;34.834;2023-01-01T16:10:57;15.98;;;4.40;;
75935;SDS011;64614;32.062;34.834;2023-01-01T16:13:22;12.85;;;4.25;;
75935;SDS011;64614;32.062;34.834;2023-01-01T16:15:49;14.73;;;4.47;;
75935;SDS011;64614;32.062;34.834;2023-01-01T16:18:17;13.68;;;4.28;;
75935;SDS011;64614;32.062;34.834;2023-01-01T16:20:44;12.65;;;4.72;;
75935;SDS011;64614;32.062;34.834;2023-01-01T16:23:10;17.00;;;4.57;;
75935;SDS011;64614;32.062;34.834;2023-01-01T16:25:37;11.55;;;4.22;;
75935;SDS011;64614;32.062;34.834;2023-01-01T16:28:03;11.70;;;4.40;;
75935;SDS011;64614;32.062;34.834;2023-01-01T16:30:30;11.93;;;4.32;;
75935;SDS011;64614;32.062;34.834;2023-01-01T16:32:57;12.93;;;4.38;;
75935;SDS011;64614;32.062;34.834;2023-01-01T16:35:23;16.92;;;4.53;;
75935;SDS011;64614;32.062;34.834;2023-01-01T16:37:50;11.70;;;4.20;;
75935;SDS011;64614;32.062;34.834;2023-01-01T16:40:18;13.18;;;3.83;;
75935;SDS011;64614;32.062;34.834;2023-01-01T16:42:45;12.48;;;4.25;;
75935;SDS011;64614;32.062;34.834;2023-01-01T16:45:16;12.45;;;4.32;;
75935;SDS011;64614;32.062;34.834;2023-01-01T16:47:43;11.77;;;4.28;;
75935;SDS011;64614;32.062;34.834;2023-01-01T16:50:10;13.73;;;3.97;;
75935;SDS011;64614;32.062;34.834;2023-01-01T16:52:36;10.20;;;4.10;;
75935;SDS011;64614;32.062;34.834;2023-01-01T16:55:02;9.32;;;3.67;;
75935;SDS011;64614;32.062;34.834;2023-01-01T16:57:29;12.68;;;4.28;;
75935;SDS011;64614;32.062;34.834;2023-01-01T16:59:56;17.02;;;4.97;;
75935;SDS011;64614;32.062;34.834;2023-01-01T17:02:23;8.98;;;4.00;;
75935;SDS011;64614;32.062;34.834;2023-01-01T17:04:48;10.30;;;3.80;;
75935;SDS011;64614;32.062;34.834;2023-01-01T17:07:14;13.27;;;4.00;;